createdAt,value
2019-05-14T00:02:21.439Z,103601.77
2019-05-14T00:04:51.130Z,103599.58
2019-05-14T00:07:18.840Z,103589.39
2019-05-14T00:09:46.774Z,103592.40
2019-05-14T00:12:14.730Z,103590.69
2019-05-14T00:14:43.800Z,103587.66
2019-05-14T00:17:12.044Z,103585.92
2019-05-14T00:19:41.879Z,103591.08
2019-05-14T00:22:11.595Z,103589.71
2019-05-14T00:24:41.574Z,103588.48
2019-05-14T00:27:11.410Z,103580.09
2019-05-14T00:29:41.438Z,103583.36
2019-05-14T00:32:11.098Z,103579.23
2019-05-14T00:34:38.526Z,103572.80
2019-05-14T00:37:06.484Z,103576.67
2019-05-14T00:39:34.401Z,103574.45
2019-05-14T00:42:02.352Z,103578.22
2019-05-14T00:44:32.312Z,103566.79
2019-05-14T00:47:01.986Z,103568.96
2019-05-14T00:49:31.691Z,103568.89
2019-05-14T00:51:59.366Z,103561.70
2019-05-14T00:54:27.351Z,103559.16
2019-05-14T00:56:55.304Z,103553.64
2019-05-14T00:59:23.201Z,103559.13
2019-05-14T01:01:51.635Z,103559.00
2019-05-14T01:04:22.103Z,103561.20
2019-05-14T01:06:51.151Z,103552.73
2019-05-14T01:09:19.320Z,103553.16
2019-05-14T01:11:48.328Z,103554.83
2019-05-14T01:14:16.291Z,103564.09
2019-05-14T01:16:44.305Z,103557.34
2019-05-14T01:19:15.313Z,103563.24
2019-05-14T01:21:43.554Z,103568.19
2019-05-14T01:24:12.553Z,103564.10
2019-05-14T01:26:41.601Z,103568.13
2019-05-14T01:29:12.017Z,103569.36
2019-05-14T01:31:41.610Z,103567.30
2019-05-14T01:34:11.208Z,103566.92
2019-05-14T01:36:41.198Z,103568.19
2019-05-14T01:39:08.785Z,103577.48
2019-05-14T01:41:36.701Z,103580.39
2019-05-14T01:44:04.697Z,103573.98
2019-05-14T01:46:32.624Z,103574.02
2019-05-14T01:49:01.552Z,103565.22
2019-05-14T01:51:31.542Z,103560.41
2019-05-14T01:54:01.484Z,103564.66
2019-05-14T01:56:31.733Z,103563.77
2019-05-14T01:59:01.485Z,103559.52
2019-05-14T02:01:31.339Z,103558.25
2019-05-14T02:03:58.610Z,103562.54
2019-05-14T02:06:26.598Z,103563.36
2019-05-14T02:08:57.945Z,103426.95
2019-05-14T02:11:26.443Z,103566.20
2019-05-14T02:14:02.386Z,103564.44
2019-05-14T02:16:31.381Z,103567.02
2019-05-14T02:19:01.361Z,103570.23
2019-05-14T02:21:31.696Z,103562.23
2019-05-14T02:23:59.238Z,103570.28
2019-05-14T02:26:27.225Z,103571.02
2019-05-14T02:28:55.588Z,103568.87
2019-05-14T02:31:23.624Z,103564.18
2019-05-14T02:33:51.837Z,103569.51
2019-05-14T02:36:20.063Z,103564.03
2019-05-14T02:38:49.340Z,103569.50
2019-05-14T02:41:32.877Z,103555.27
2019-05-14T02:44:41.409Z,103555.58
2019-05-14T02:47:10.365Z,103549.23
2019-05-14T02:49:39.866Z,103547.41
2019-05-14T02:52:10.038Z,103543.22
2019-05-14T02:54:40.471Z,103551.63
2019-05-14T02:57:10.459Z,103541.95
2019-05-14T02:59:39.375Z,103545.09
2019-05-14T03:02:09.923Z,103542.66
2019-05-14T03:04:39.478Z,103538.75
2019-05-14T03:07:11.370Z,103534.80
2019-05-14T03:09:40.340Z,103532.77
2019-05-14T03:12:10.096Z,103536.92
2019-05-14T03:14:39.593Z,103529.58
2019-05-14T03:17:10.559Z,103526.23
2019-05-14T03:19:40.750Z,103535.77
2019-05-14T03:22:10.081Z,103540.09
2019-05-14T03:24:40.271Z,103532.50
2019-05-14T03:27:09.751Z,103526.22
2019-05-14T03:29:39.889Z,103538.43
2019-05-14T03:32:13.308Z,103534.13
2019-05-14T03:34:43.325Z,103531.06
2019-05-14T03:37:13.008Z,103533.99
2019-05-14T03:39:42.501Z,103529.48
2019-05-14T03:42:10.869Z,103530.41
2019-05-14T03:44:40.014Z,103527.01
2019-05-14T03:47:19.813Z,103526.09
2019-05-14T03:49:49.785Z,103527.33
2019-05-14T03:52:20.019Z,103521.62
2019-05-14T03:54:50.147Z,103522.53
2019-05-14T03:57:20.081Z,103519.89
2019-05-14T03:59:49.812Z,103524.03
2019-05-14T04:02:25.357Z,103519.54
2019-05-14T04:04:55.841Z,103516.16
2019-05-14T04:07:23.812Z,103522.95
2019-05-14T04:09:52.920Z,103519.48
2019-05-14T04:12:23.917Z,103517.30
2019-05-14T04:14:53.336Z,103517.84
2019-05-14T04:17:32.453Z,103513.69
2019-05-14T04:19:53.086Z,103515.88
2019-05-14T04:22:39.823Z,103513.81
2019-05-14T04:25:10.833Z,103511.39
2019-05-14T04:27:40.358Z,103504.20
2019-05-14T04:30:10.316Z,103510.86
2019-05-14T04:32:40.460Z,103505.52
2019-05-14T04:35:09.556Z,103506.91
2019-05-14T04:37:39.974Z,103499.77
2019-05-14T04:40:10.047Z,103497.20
2019-05-14T04:42:40.226Z,103492.62
2019-05-14T04:45:10.560Z,103497.23
2019-05-14T04:47:40.940Z,103496.42
2019-05-14T04:50:10.247Z,103495.62
2019-05-14T04:52:36.203Z,103494.34
2019-05-14T04:55:04.456Z,103493.59
2019-05-14T04:57:32.331Z,103492.23
2019-05-14T05:00:00.299Z,103492.77
2019-05-14T05:02:30.098Z,103489.48
2019-05-14T05:04:59.421Z,103496.77
2019-05-14T05:07:29.720Z,103496.05
2019-05-14T05:09:59.290Z,103501.16
2019-05-14T05:12:29.613Z,103494.58
2019-05-14T05:14:58.675Z,103492.42
2019-05-14T05:17:43.002Z,103486.98
2019-05-14T05:19:59.079Z,103491.75
2019-05-14T05:22:28.463Z,103482.95
2019-05-14T05:24:55.637Z,103486.30
2019-05-14T05:27:23.555Z,103483.08
2019-05-14T05:29:51.425Z,103489.47
2019-05-14T05:32:19.644Z,103479.39
2019-05-14T05:34:48.394Z,103327.16
2019-05-14T05:37:18.823Z,103484.95
2019-05-14T05:39:45.971Z,103473.48
2019-05-14T05:42:14.288Z,103470.67
2019-05-14T05:44:42.340Z,103471.14
2019-05-14T05:47:10.240Z,103469.03
2019-05-14T05:49:38.361Z,103466.12
2019-05-14T05:52:08.549Z,103472.50
2019-05-14T05:54:38.216Z,103470.00
2019-05-14T05:57:06.095Z,103467.46
2019-05-14T05:59:34.087Z,103467.92
2019-05-14T06:02:02.121Z,103467.95
2019-05-14T06:04:31.444Z,103472.19
2019-05-14T06:07:02.526Z,103463.72
2019-05-14T06:09:29.056Z,103474.30
2019-05-14T06:11:59.019Z,103469.63
2019-05-14T06:14:28.972Z,103468.77
2019-05-14T06:16:56.259Z,103469.19
2019-05-14T06:19:24.176Z,103465.30
2019-05-14T06:21:52.170Z,103458.53
2019-05-14T06:24:20.260Z,103455.05
2019-05-14T06:26:49.069Z,103458.84
2019-05-14T06:29:18.684Z,103454.96
2019-05-14T06:31:49.364Z,103455.77
2019-05-14T06:34:18.623Z,103455.36
2019-05-14T06:36:48.626Z,103455.83
2019-05-14T06:39:18.100Z,103454.67
2019-05-14T06:41:45.689Z,103454.11
2019-05-14T06:44:13.707Z,103456.45
2019-05-14T06:46:41.610Z,103453.05
2019-05-14T06:49:09.732Z,103450.80
2019-05-14T06:51:39.488Z,103451.07
2019-05-14T06:54:09.244Z,103461.13
2019-05-14T06:56:38.620Z,103452.91
2019-05-14T06:59:08.964Z,103460.64
2019-05-14T07:01:38.475Z,103459.17
2019-05-14T07:04:08.413Z,103468.69
2019-05-14T07:06:35.778Z,103466.67
2019-05-14T07:09:08.016Z,103457.41
2019-05-14T07:11:35.109Z,103457.34
2019-05-14T07:14:03.190Z,103457.17
2019-05-14T07:16:31.089Z,103460.58
2019-05-14T07:18:59.324Z,103456.54
2019-05-14T07:21:29.174Z,103452.19
2019-05-14T07:23:59.337Z,103450.16
2019-05-14T07:26:29.337Z,103460.30
2019-05-14T07:28:58.915Z,103460.94
2019-05-14T07:31:25.985Z,103451.15
2019-05-14T07:33:53.932Z,103448.03
2019-05-14T07:36:21.925Z,103448.19
2019-05-14T07:38:49.829Z,103444.34
2019-05-14T07:41:19.257Z,103449.44
2019-05-14T07:43:48.293Z,103444.59
2019-05-14T07:46:18.854Z,103440.59
2019-05-14T07:49:03.259Z,103442.84
2019-05-14T07:51:15.813Z,103446.61
2019-05-14T07:53:43.876Z,103455.38
2019-05-14T07:56:11.865Z,103449.47
2019-05-14T07:58:39.839Z,103459.17
2019-05-14T08:01:09.467Z,103450.95
2019-05-14T08:03:38.279Z,103444.77
2019-05-14T08:06:08.436Z,103440.56
2019-05-14T08:08:38.564Z,103440.70
2019-05-14T08:11:08.426Z,103437.31
2019-05-14T08:13:35.769Z,103439.34
2019-05-14T08:16:03.801Z,103449.52
2019-05-14T08:18:31.677Z,103450.95
2019-05-14T08:20:59.599Z,103443.73
2019-05-14T08:23:28.226Z,103437.23
2019-05-14T08:25:58.504Z,103434.31
2019-05-14T08:28:26.358Z,103431.73
2019-05-14T08:30:54.316Z,103423.11
2019-05-14T08:33:22.231Z,103425.25
2019-05-14T08:35:50.164Z,103421.83
2019-05-14T08:38:18.573Z,103416.33
2019-05-14T08:40:48.687Z,103414.02
2019-05-14T08:43:18.308Z,103407.13
2019-05-14T08:45:48.456Z,103401.52
2019-05-14T08:48:15.680Z,103396.48
2019-05-14T08:50:43.656Z,103371.64
2019-05-14T08:53:11.647Z,103367.14
2019-05-14T08:55:39.640Z,103371.84
2019-05-14T08:58:13.400Z,103375.42
2019-05-14T09:00:38.702Z,103375.31
2019-05-14T09:03:08.495Z,103369.70
2019-05-14T09:05:38.565Z,103377.77
2019-05-14T09:08:08.641Z,103364.70
2019-05-14T09:10:35.849Z,103358.37
2019-05-14T09:13:03.853Z,103363.62
2019-05-14T09:15:31.763Z,103362.84
2019-05-14T09:18:03.538Z,103373.13
2019-05-14T09:20:31.026Z,103369.20
2019-05-14T09:22:59.598Z,103370.19
2019-05-14T09:25:29.204Z,103370.06
2019-05-14T09:27:58.631Z,103363.84
2019-05-14T09:30:28.984Z,103368.59
2019-05-14T09:32:59.173Z,103365.09
2019-05-14T09:35:29.084Z,103367.55
2019-05-14T09:37:55.923Z,103361.49
2019-05-14T09:40:23.839Z,103359.39
2019-05-14T09:42:51.759Z,103354.86
2019-05-14T09:45:19.717Z,103366.36
2019-05-14T09:47:50.583Z,103359.13
2019-05-14T09:50:22.750Z,103359.36
2019-05-14T09:52:49.224Z,103345.40
2019-05-14T09:55:18.136Z,103351.55
2019-05-14T09:57:46.304Z,103353.02
2019-05-14T10:00:14.752Z,103347.57
2019-05-14T10:02:42.818Z,103342.08
2019-05-14T10:05:10.807Z,103338.98
2019-05-14T10:07:39.391Z,103325.84
2019-05-14T10:10:07.599Z,103323.69
2019-05-14T10:12:47.695Z,103323.28
2019-05-14T10:15:08.784Z,103321.77
2019-05-14T10:17:39.324Z,103312.05
2019-05-14T10:20:08.821Z,103306.03
2019-05-14T10:22:36.089Z,103301.67
2019-05-14T10:25:04.440Z,103295.89
2019-05-14T10:27:32.353Z,103291.37
2019-05-14T10:30:00.333Z,103290.06
2019-05-14T10:32:29.493Z,103298.41
2019-05-14T10:34:58.975Z,103288.78
2019-05-14T10:37:28.829Z,103281.31
2019-05-14T10:39:58.614Z,103282.31
2019-05-14T10:42:28.819Z,103269.81
2019-05-14T10:44:58.493Z,103269.44
2019-05-14T10:47:25.569Z,103267.95
2019-05-14T10:49:53.509Z,103273.70
2019-05-14T10:52:23.000Z,103276.00
2019-05-14T10:54:56.074Z,103267.91
2019-05-14T10:57:20.532Z,103262.02
2019-05-14T10:59:48.480Z,103262.64
2019-05-14T11:02:18.606Z,103261.75
2019-05-14T11:04:48.207Z,103255.45
2019-05-14T11:07:15.676Z,103247.91
2019-05-14T11:09:43.612Z,103246.94
2019-05-14T11:12:11.532Z,103247.05
2019-05-14T11:14:39.456Z,103237.31
2019-05-14T11:17:11.584Z,103236.47
2019-05-14T11:19:38.946Z,103234.77
2019-05-14T11:22:08.488Z,103226.77
2019-05-14T11:24:38.633Z,103232.36
2019-05-14T11:27:06.205Z,103219.02
2019-05-14T11:29:34.232Z,103211.81
2019-05-14T11:32:02.174Z,103211.90
2019-05-14T11:34:30.059Z,103214.67
2019-05-14T11:36:58.984Z,103200.48
2019-05-14T11:39:28.817Z,103203.47
2019-05-14T11:41:59.079Z,103194.73
2019-05-14T11:44:28.616Z,103207.30
2019-05-14T11:46:58.043Z,103202.62
2019-05-14T11:49:25.909Z,103200.23
2019-05-14T11:52:04.166Z,103194.94
2019-05-14T11:54:23.597Z,103207.75
2019-05-14T11:56:51.512Z,103205.31
2019-05-14T11:59:19.507Z,103193.32
2019-05-14T12:01:49.367Z,103198.67
2019-05-14T12:04:18.788Z,103195.35
2019-05-14T12:06:46.888Z,103192.36
2019-05-14T12:09:14.763Z,103182.39
2019-05-14T12:11:42.780Z,103166.13
2019-05-14T12:14:10.752Z,103173.08
2019-05-14T12:16:40.105Z,103161.10
2019-05-14T12:19:11.828Z,103163.45
2019-05-14T12:21:39.784Z,103156.00
2019-05-14T12:24:13.399Z,103133.70
2019-05-14T12:26:38.562Z,103138.39
2019-05-14T12:29:09.617Z,103135.93
2019-05-14T12:31:38.667Z,103130.82
2019-05-14T12:34:06.273Z,103128.58
2019-05-14T12:36:34.174Z,103130.40
2019-05-14T12:39:02.143Z,103142.88
2019-05-14T12:41:30.125Z,103135.38
2019-05-14T12:43:58.976Z,103134.45
2019-05-14T12:46:29.227Z,103126.80
2019-05-14T12:48:58.945Z,103125.06
2019-05-14T12:51:26.342Z,103103.55
2019-05-14T12:53:54.297Z,103118.78
2019-05-14T12:56:22.305Z,103109.10
2019-05-14T12:58:50.274Z,103106.04
2019-05-14T13:01:20.107Z,103098.25
2019-05-14T13:03:48.484Z,103093.08
2019-05-14T13:06:19.139Z,103102.09
2019-05-14T13:08:48.951Z,103100.72
2019-05-14T13:11:15.946Z,103108.30
2019-05-14T13:13:43.881Z,103106.05
2019-05-14T13:16:11.832Z,103112.66
2019-05-14T13:18:39.780Z,103098.29
2019-05-14T13:21:07.759Z,103087.87
2019-05-14T13:23:38.077Z,103077.58
2019-05-14T13:26:05.295Z,103072.42
2019-05-14T13:28:33.233Z,103063.28
2019-05-14T13:31:01.110Z,103064.61
2019-05-14T13:33:29.059Z,103067.84
2019-05-14T13:35:59.354Z,103081.60
2019-05-14T13:38:27.282Z,103065.08
2019-05-14T13:40:55.346Z,103053.27
2019-05-14T13:43:23.357Z,103055.27
2019-05-14T13:45:51.260Z,103049.59
2019-05-14T13:48:19.247Z,103057.84
2019-05-14T13:50:49.110Z,103050.08
2019-05-14T13:53:18.950Z,103043.65
2019-05-14T13:55:50.758Z,103036.20
2019-05-14T13:58:20.403Z,103032.06
2019-05-14T14:00:51.631Z,103023.45
2019-05-14T14:03:15.668Z,103014.23
2019-05-14T14:05:43.665Z,103016.45
2019-05-14T14:08:11.601Z,103012.81
2019-05-14T14:10:44.903Z,103017.88
2019-05-14T14:13:11.181Z,103017.80
2019-05-14T14:15:39.145Z,103008.70
2019-05-14T14:18:07.086Z,103007.80
2019-05-14T14:20:35.056Z,103007.02
2019-05-14T14:23:17.527Z,103001.12
2019-05-14T14:25:32.579Z,102997.66
2019-05-14T14:28:00.628Z,103001.67
2019-05-14T14:30:28.684Z,102995.11
2019-05-14T14:32:58.705Z,102991.77
2019-05-14T14:35:30.213Z,103000.17
2019-05-14T14:37:58.963Z,102994.83
2019-05-14T14:40:25.756Z,102996.44
2019-05-14T14:42:53.705Z,102995.68
2019-05-14T14:45:22.073Z,102996.89
2019-05-14T14:47:50.208Z,102991.00
2019-05-14T14:50:19.384Z,102958.05
2019-05-14T14:52:49.581Z,102995.56
2019-05-14T14:55:19.352Z,102991.07
2019-05-14T14:57:53.445Z,102992.77
2019-05-14T15:00:19.182Z,102983.47
2019-05-14T15:02:49.367Z,102981.58
2019-05-14T15:05:19.713Z,102977.83
2019-05-14T15:07:49.793Z,102968.06
2019-05-14T15:10:16.102Z,102963.52
2019-05-14T15:12:44.034Z,102964.89
2019-05-14T15:15:12.116Z,102958.51
2019-05-14T15:17:40.021Z,102949.34
2019-05-14T15:20:10.507Z,102946.49
2019-05-14T15:22:37.773Z,102953.25
2019-05-14T15:25:05.754Z,102949.50
2019-05-14T15:27:33.689Z,102933.98
2019-05-14T15:30:01.685Z,102944.23
2019-05-14T15:32:30.189Z,102938.22
2019-05-14T15:34:59.261Z,102929.09
2019-05-14T15:37:31.253Z,102930.83
2019-05-14T15:39:57.360Z,102926.78
2019-05-14T15:42:25.346Z,102920.73
2019-05-14T15:44:56.047Z,102922.03
2019-05-14T15:47:22.999Z,102919.27
2019-05-14T15:49:50.989Z,102916.20
2019-05-14T15:52:19.425Z,102909.34
2019-05-14T15:54:50.461Z,102913.61
2019-05-14T15:57:19.268Z,102909.28
2019-05-14T15:59:46.860Z,102909.34
2019-05-14T16:02:14.821Z,102899.65
2019-05-14T16:04:42.830Z,102898.73
2019-05-14T16:07:11.814Z,102892.52
2019-05-14T16:09:40.008Z,102893.73
2019-05-14T16:12:09.595Z,102895.56
2019-05-14T16:14:38.787Z,102894.68
2019-05-14T16:17:11.292Z,102895.41
2019-05-14T16:19:39.041Z,102890.72
2019-05-14T16:22:06.277Z,102879.05
2019-05-14T16:24:34.341Z,102883.64
2019-05-14T16:27:02.282Z,102882.86
2019-05-14T16:29:41.299Z,102890.30
2019-05-14T16:32:00.009Z,102895.10
2019-05-14T16:34:28.691Z,102875.50
2019-05-14T16:36:58.464Z,102872.07
2019-05-14T16:39:28.485Z,102880.09
2019-05-14T16:41:58.235Z,102877.64
2019-05-14T16:44:28.132Z,102881.73
2019-05-14T16:46:55.532Z,102877.22
2019-05-14T16:49:23.515Z,102878.31
2019-05-14T16:51:51.460Z,102873.13
2019-05-14T16:54:19.523Z,102876.55
2019-05-14T16:56:48.332Z,102869.06
2019-05-14T16:59:18.491Z,102866.41
2019-05-14T17:01:46.037Z,102868.20
2019-05-14T17:04:13.956Z,102865.75
2019-05-14T17:06:41.971Z,102867.09
2019-05-14T17:09:09.937Z,102863.32
2019-05-14T17:11:39.079Z,102862.56
2019-05-14T17:14:08.692Z,102858.69
2019-05-14T17:16:36.978Z,102863.14
2019-05-14T17:19:04.982Z,102862.30
2019-05-14T17:21:32.918Z,102855.27
2019-05-14T17:24:00.896Z,102849.11
2019-05-14T17:26:28.881Z,102856.73
2019-05-14T17:28:59.464Z,102849.17
2019-05-14T17:31:26.717Z,102850.81
2019-05-14T17:33:54.844Z,102848.70
2019-05-14T17:36:22.772Z,102852.89
2019-05-14T17:38:50.785Z,102849.53
2019-05-14T17:41:19.445Z,102846.34
2019-05-14T17:43:49.277Z,102846.59
2019-05-14T17:46:18.396Z,102850.80
2019-05-14T17:48:48.639Z,102847.27
2019-05-14T17:51:18.087Z,102841.08
2019-05-14T17:53:48.134Z,102840.49
2019-05-14T17:56:15.989Z,102840.06
2019-05-14T17:58:44.885Z,102836.34
2019-05-14T18:01:14.110Z,102833.84
2019-05-14T18:03:42.144Z,102839.59
2019-05-14T18:06:10.033Z,102833.36
2019-05-14T18:08:38.037Z,102827.84
2019-05-14T18:11:08.540Z,102831.77
2019-05-14T18:13:35.869Z,102829.42
2019-05-14T18:16:03.845Z,102834.58
2019-05-14T18:18:33.301Z,102832.75
2019-05-14T18:21:01.274Z,102831.34
2019-05-14T18:23:29.276Z,102831.02
2019-05-14T18:26:07.134Z,102829.55
2019-05-14T18:28:28.827Z,102831.02
2019-05-14T18:30:58.856Z,102826.91
2019-05-14T18:33:30.783Z,102824.69
2019-05-14T18:35:58.764Z,102818.55
2019-05-14T18:38:25.925Z,102824.12
2019-05-14T18:40:53.818Z,102820.39
2019-05-14T18:43:21.756Z,102814.61
2019-05-14T18:45:50.444Z,102812.06
2019-05-14T18:59:40.654Z,102816.75
2019-05-14T19:02:09.682Z,102829.03
2019-05-14T19:04:38.821Z,102829.03
2019-05-14T19:07:07.903Z,102812.48
2019-05-14T19:09:38.846Z,102816.03
2019-05-14T19:12:08.329Z,102817.04
2019-05-14T19:14:39.027Z,102818.48
2019-05-14T19:17:09.764Z,102821.45
2019-05-14T19:19:38.873Z,102821.42
2019-05-14T19:22:07.986Z,102821.42
2019-05-14T19:24:38.282Z,102826.56
2019-05-14T19:27:09.131Z,102824.17
2019-05-14T19:29:38.741Z,102828.80
2019-05-14T19:32:08.287Z,102828.80
2019-05-14T19:34:38.175Z,102830.31
2019-05-14T19:37:08.300Z,102828.20
2019-05-14T19:39:38.645Z,102829.50
2019-05-14T19:42:08.661Z,102836.00
2019-05-14T19:44:40.171Z,102838.32
2019-05-14T19:47:09.065Z,102837.84
2019-05-14T19:49:38.411Z,102840.06
2019-05-14T19:52:08.186Z,102834.73
2019-05-14T19:54:38.432Z,102834.73
2019-05-14T19:57:09.999Z,102847.80
2019-05-14T19:59:38.832Z,102836.34
2019-05-14T20:02:09.495Z,102843.09
2019-05-14T20:04:38.933Z,102840.24
2019-05-14T20:07:08.981Z,102840.24
2019-05-14T20:09:38.807Z,102838.80
2019-05-14T20:12:07.963Z,102848.02
2019-05-14T20:14:39.283Z,102843.30
2019-05-14T20:17:08.970Z,102852.63
2019-05-14T20:19:39.616Z,102852.63
2019-05-14T20:22:08.954Z,102849.67
2019-05-14T20:24:41.418Z,102848.96
2019-05-14T20:27:12.132Z,102855.75
2019-05-14T20:29:39.487Z,102859.14
2019-05-14T20:32:08.782Z,102857.92
2019-05-14T20:34:37.758Z,102851.58
2019-05-14T20:37:08.525Z,102853.29
2019-05-14T20:39:39.139Z,102850.98
2019-05-14T20:42:09.622Z,102860.82
2019-05-14T20:44:38.844Z,102851.50
2019-05-14T20:47:09.114Z,102852.30
2019-05-14T20:49:38.427Z,102852.70
2019-05-14T20:52:08.852Z,102854.30
2019-05-14T20:54:37.978Z,102851.38
2019-05-14T20:57:22.629Z,102852.68
2019-05-14T20:59:38.955Z,102854.30
2019-05-14T21:02:08.549Z,102849.12
2019-05-14T21:04:37.616Z,102809.83
2019-05-14T21:07:08.328Z,102836.31
2019-05-14T21:09:38.587Z,102836.31
2019-05-14T21:12:08.422Z,102849.25
2019-05-14T21:14:41.060Z,102851.14
2019-05-14T21:17:08.739Z,102853.75
2019-05-14T21:19:38.105Z,102853.75
2019-05-14T21:22:08.431Z,102845.46
2019-05-14T21:24:39.186Z,102848.77
2019-05-14T21:27:09.284Z,102853.23
2019-05-14T21:29:38.635Z,102851.73
2019-05-14T21:32:08.241Z,102851.83
2019-05-14T21:34:38.333Z,102847.76
2019-05-14T21:37:09.042Z,102847.76
2019-05-14T21:39:40.871Z,102844.79
2019-05-14T21:42:10.914Z,102843.95
2019-05-14T21:44:40.247Z,102843.80
2019-05-14T21:47:09.278Z,102838.20
2019-05-14T21:49:38.997Z,102838.20
2019-05-14T21:52:09.021Z,102837.08
2019-05-14T21:54:39.535Z,102843.58
2019-05-14T21:57:11.744Z,102834.80
2019-05-14T21:59:39.615Z,102833.78
2019-05-14T22:02:09.265Z,102833.08
2019-05-14T22:04:38.680Z,102832.77
2019-05-14T22:07:09.066Z,102832.77
2019-05-14T22:09:41.146Z,102827.91
2019-05-14T22:12:12.006Z,102826.21
2019-05-14T22:14:41.055Z,102826.21
2019-05-14T22:17:10.122Z,102815.34
2019-05-14T22:19:39.247Z,102816.53
2019-05-14T22:22:08.394Z,102816.53
2019-05-14T22:24:38.397Z,102818.22
2019-05-14T22:27:09.379Z,102815.06
2019-05-14T22:29:38.596Z,102811.81
2019-05-14T22:32:08.215Z,102811.81
2019-05-14T22:34:38.492Z,102806.07
2019-05-14T22:37:08.425Z,102807.02
2019-05-14T22:39:39.061Z,102814.48
2019-05-14T22:42:09.197Z,102810.70
2019-05-14T22:44:38.558Z,102812.02
2019-05-14T22:47:08.159Z,102812.02
2019-05-14T22:49:37.458Z,102811.83
2019-05-14T22:52:08.368Z,102808.61
2019-05-14T22:54:38.628Z,102808.28
2019-05-14T22:57:08.124Z,102814.42
2019-05-14T22:59:39.211Z,102808.66
2019-05-14T23:02:11.114Z,102807.86
2019-05-14T23:04:38.725Z,102814.03
2019-05-14T23:07:08.189Z,102806.81
2019-05-14T23:09:38.705Z,102808.08
2019-05-14T23:12:12.135Z,102805.58
2019-05-14T23:14:41.261Z,102809.58
2019-05-14T23:17:10.314Z,102806.09
2019-05-14T23:19:39.374Z,102801.89
2019-05-14T23:22:11.430Z,102803.91
2019-05-14T23:24:40.490Z,102803.91
2019-05-14T23:27:09.516Z,102806.44
2019-05-14T23:29:38.635Z,102796.70
2019-05-14T23:32:08.218Z,102803.92
2019-05-14T23:34:38.110Z,102806.26
2019-05-14T23:37:08.236Z,102803.33
2019-05-14T23:39:38.361Z,102798.51
2019-05-14T23:42:09.124Z,102793.45
2019-05-14T23:44:38.357Z,102796.69
2019-05-14T23:47:08.323Z,102800.25
2019-05-14T23:49:38.923Z,102791.59
2019-05-14T23:52:09.204Z,102793.83
2019-05-14T23:54:38.734Z,102793.80
2019-05-14T23:57:08.904Z,102794.22
2019-05-14T23:59:39.602Z,102790.62
